Página principal
METAR-TAF:

METAR-TAF

Aeroportos :

Aeroporto Internacional Nouakchott-Oumtounsy

Nouakchott, Mauritânia

latitude: 18-18-36N, longitude: 015-58-11W, altura: 3 m

Observação actual do tempo

O boletim foi feito há 25 minutos, às 14:00 UTC
Vento 11 kt de oes-sudoeste, variando entre sudoeste e oeste
Temperatura 29°C
Humidade 66%
Pressão 1010 hPa
Visibilidade: 8000 m

METAR: GQNO 201400Z 25011KT 220V280 8000 NSC 29/22 Q1010 NOSIG

Hora: 14:25 (14:25 UTC)

Previsão

O boletim foi feito há 3 horas e 25 minutos, às 11:00 UTC
Previsão válida de 20 às 12 UTC a 21 às 18 UTC
Vento 12 kt de oes-noroeste
Visibilidade: 7000 m

TAF: GQNO 201100Z 2012/2118 30012KT 7000 NSC

Observações e previsões do tempo de mais de 4000 aeroportos (mensagens METAR e TAF).

As estações disponíveis são os pontos amarelos e vermelhos sobre o mapa.

Mova o rato sobre o mapa para ver o nome da estação.

Depois clique no ponto para visualizar as observações e previsões meteorológicas.

Para alterar o mapa : clique nos botões verdes com uma cruz preta para aumentar o zoom; no botão verde com uma pitada de zoom; ou nas setas verdes para mapas adjacentes.


METAR-TAF: